Time;durP1;ratioP1;P1;durP2;ratioP2;P2;SDS_P1;SDS_P2;PMS_P1;PMS_P2;Temp;Humidity;BMP_temperature;BMP_pressure;BME280_temperature;BME280_humidity;BME280_pressure;Samples;Min_cycle;Max_cycle;Signal;HPM_P1;HPM_P2
2023/04/22 00:01:34;;;;;;;6.50;4.13;;;11.60;99.90;;;;;;5013864;28;20780;-54
2023/04/22 00:04:03;;;;;;;6.63;3.53;;;11.50;99.90;;;;;;5033670;28;20242;-54
2023/04/22 00:06:32;;;;;;;8.93;4.57;;;11.50;99.90;;;;;;5028243;28;20347;-53
2023/04/22 00:09:00;;;;;;;5.80;3.80;;;11.50;99.90;;;;;;5038483;28;20247;-53
2023/04/22 00:11:28;;;;;;;5.40;4.10;;;11.40;99.90;;;;;;5035994;28;20235;-52
2023/04/22 00:13:56;;;;;;;5.23;3.90;;;11.40;99.90;;;;;;5035781;28;20242;-54
2023/04/22 00:16:25;;;;;;;5.43;4.00;;;11.40;99.90;;;;;;5032113;28;20240;-55
2023/04/22 00:18:53;;;;;;;6.73;4.40;;;11.40;99.90;;;;;;5034370;28;20656;-54
2023/04/22 00:21:22;;;;;;;5.63;4.00;;;11.40;99.90;;;;;;5036173;28;20702;-54
2023/04/22 00:23:50;;;;;;;4.80;3.63;;;11.40;99.90;;;;;;5035771;28;20660;-54
2023/04/22 00:26:18;;;;;;;6.63;4.20;;;11.40;99.90;;;;;;5036120;28;20246;-54
2023/04/22 00:28:47;;;;;;;6.53;4.10;;;11.40;99.90;;;;;;5035842;28;20315;-55
2023/04/22 00:31:15;;;;;;;4.83;3.87;;;11.30;99.90;;;;;;5035765;28;20238;-54
2023/04/22 00:33:43;;;;;;;6.83;3.93;;;11.30;99.90;;;;;;5028862;28;20223;-54
2023/04/22 00:36:12;;;;;;;4.83;4.10;;;11.30;99.90;;;;;;5030745;28;20258;-53
2023/04/22 00:38:48;;;;;;;6.43;4.10;;;11.30;99.90;;;;;;5047619;28;20265;-54
2023/04/22 00:41:16;;;;;;;5.50;4.30;;;11.30;99.90;;;;;;5035702;28;20583;-53
2023/04/22 00:43:46;;;;;;;7.50;4.00;;;11.20;99.90;;;;;;5035825;28;20234;-55
2023/04/22 00:46:16;;;;;;;4.70;4.00;;;11.20;99.90;;;;;;5035142;28;20705;-54
2023/04/22 00:48:47;;;;;;;5.73;4.17;;;11.20;99.90;;;;;;5041941;28;20233;-55
2023/04/22 00:51:15;;;;;;;5.50;4.10;;;11.20;99.90;;;;;;5035310;28;20228;-52
2023/04/22 00:53:44;;;;;;;5.73;4.03;;;11.20;99.90;;;;;;5050441;28;20595;-54
2023/04/22 00:56:13;;;;;;;4.87;3.57;;;11.20;99.90;;;;;;5034013;28;20231;-55
2023/04/22 00:58:41;;;;;;;5.90;4.27;;;11.10;99.90;;;;;;5035155;28;20230;-53
2023/04/22 01:01:09;;;;;;;8.57;4.60;;;11.10;99.90;;;;;;5058029;22;20247;-61
2023/04/22 01:03:40;;;;;;;5.07;4.10;;;11.10;99.90;;;;;;5049915;28;20228;-62
2023/04/22 01:06:08;;;;;;;6.60;4.17;;;11.10;99.90;;;;;;5034961;28;20226;-61
2023/04/22 01:08:37;;;;;;;7.80;3.90;;;11.00;99.90;;;;;;5034853;28;20827;-61
2023/04/22 01:11:06;;;;;;;4.60;3.90;;;11.00;99.90;;;;;;5035063;28;20223;-61
2023/04/22 01:13:37;;;;;;;5.43;3.93;;;11.00;99.90;;;;;;5034863;28;20227;-61
2023/04/22 01:16:07;;;;;;;8.63;4.57;;;11.00;99.90;;;;;;5049295;28;20702;-61
2023/04/22 01:18:36;;;;;;;5.93;4.27;;;10.90;99.90;;;;;;5030919;28;20257;-61
2023/04/22 01:21:05;;;;;;;4.73;3.80;;;10.90;99.90;;;;;;5015202;28;20683;-61
2023/04/22 01:23:35;;;;;;;5.17;4.20;;;11.00;99.90;;;;;;5014884;28;20260;-61
2023/04/22 01:26:03;;;;;;;5.83;3.93;;;10.90;99.90;;;;;;5020241;28;20231;-61
2023/04/22 01:28:31;;;;;;;5.10;4.03;;;10.90;99.90;;;;;;5049876;28;20238;-62
2023/04/22 01:31:00;;;;;;;5.87;4.30;;;10.90;99.90;;;;;;5034516;28;20579;-61
2023/04/22 01:33:30;;;;;;;5.97;4.20;;;10.90;99.90;;;;;;5032655;28;20637;-61
2023/04/22 01:35:58;;;;;;;6.23;4.27;;;10.80;99.90;;;;;;5046941;28;20243;-61
2023/04/22 01:38:26;;;;;;;5.30;4.20;;;10.80;99.90;;;;;;5028004;28;20251;-62
2023/04/22 01:43:53;;;;;;;7.60;4.53;;;10.80;99.90;;;;;;5034278;28;20689;-61
2023/04/22 01:46:21;;;;;;;4.67;4.07;;;10.80;99.90;;;;;;5034134;28;20211;-61
2023/04/22 01:48:50;;;;;;;9.13;4.40;;;10.70;99.90;;;;;;5033987;28;20223;-61
2023/04/22 01:51:20;;;;;;;7.87;4.47;;;10.70;99.90;;;;;;5034346;28;20633;-61
2023/04/22 01:53:49;;;;;;;6.23;4.70;;;10.70;99.90;;;;;;5034085;28;20228;-61
2023/04/22 01:56:18;;;;;;;6.60;4.70;;;10.70;99.90;;;;;;5045910;28;20245;-61
2023/04/22 01:58:47;;;;;;;6.10;4.40;;;10.70;99.90;;;;;;5031915;28;20227;-61
2023/04/22 02:01:15;;;;;;;5.40;4.40;;;10.60;99.90;;;;;;5032348;28;20612;-61
2023/04/22 02:03:43;;;;;;;7.80;4.77;;;10.70;99.90;;;;;;5027384;28;20617;-61
2023/04/22 02:06:13;;;;;;;5.37;4.40;;;10.60;99.90;;;;;;5027761;28;20228;-61
2023/04/22 02:08:41;;;;;;;7.47;4.60;;;10.60;99.90;;;;;;5046097;28;20266;-61
2023/04/22 02:11:09;;;;;;;9.30;4.07;;;10.60;99.90;;;;;;5033674;28;20241;-61
2023/04/22 02:13:40;;;;;;;6.50;4.97;;;10.60;99.90;;;;;;5032382;28;20694;-61
2023/04/22 02:16:08;;;;;;;7.17;5.07;;;10.60;99.90;;;;;;5049064;28;20230;-61
2023/04/22 02:18:37;;;;;;;4.90;4.37;;;10.60;99.90;;;;;;5033496;28;20630;-61
2023/04/22 02:21:08;;;;;;;5.30;4.70;;;10.60;99.90;;;;;;5013021;28;20238;-61
2023/04/22 02:23:37;;;;;;;5.27;4.77;;;10.60;99.90;;;;;;5012578;28;20595;-61
2023/04/22 02:26:05;;;;;;;7.00;4.80;;;10.60;99.90;;;;;;5019234;28;20277;-61
2023/04/22 02:28:35;;;;;;;5.17;4.67;;;10.50;99.90;;;;;;5032188;28;20231;-61
2023/04/22 02:31:04;;;;;;;6.53;5.10;;;10.50;99.90;;;;;;5048697;28;20330;-61
2023/04/22 02:33:32;;;;;;;7.13;5.10;;;10.50;99.90;;;;;;5038844;28;20591;-61
2023/04/22 02:36:00;;;;;;;6.27;4.80;;;10.50;99.90;;;;;;5029856;28;20236;-61
2023/04/22 02:38:28;;;;;;;7.40;4.70;;;10.50;99.90;;;;;;5043834;28;20234;-61
2023/04/22 02:40:56;;;;;;;6.67;5.10;;;10.50;99.90;;;;;;5033415;28;20223;-61
2023/04/22 02:43:25;;;;;;;8.57;5.10;;;10.50;99.90;;;;;;5032182;28;20234;-61
2023/04/22 02:45:54;;;;;;;5.67;4.93;;;10.50;99.90;;;;;;5033395;28;20227;-62
2023/04/22 02:48:24;;;;;;;5.47;4.93;;;10.50;99.90;;;;;;5027706;28;20617;-62
2023/04/22 02:50:52;;;;;;;6.63;5.53;;;10.40;99.90;;;;;;5033509;28;20231;-61
2023/04/22 02:53:20;;;;;;;7.87;5.40;;;10.40;99.90;;;;;;5048779;28;20693;-61
2023/04/22 02:55:48;;;;;;;6.23;5.43;;;10.40;99.90;;;;;;5033090;28;20230;-62
2023/04/22 02:58:16;;;;;;;7.00;5.47;;;10.40;99.90;;;;;;5033288;28;20687;-61
2023/04/22 03:00:44;;;;;;;5.57;4.97;;;10.40;99.90;;;;;;5032335;28;21287;-62
2023/04/22 03:03:13;;;;;;;12.50;5.50;;;10.40;99.90;;;;;;5026743;28;20222;-61
2023/04/22 03:05:43;;;;;;;7.07;5.73;;;10.40;99.90;;;;;;5047470;28;20255;-61
2023/04/22 03:08:11;;;;;;;7.20;5.30;;;10.40;99.90;;;;;;5041071;28;20223;-61
2023/04/22 03:10:39;;;;;;;6.90;5.93;;;10.40;99.90;;;;;;5032651;28;20230;-61
2023/04/22 03:13:07;;;;;;;6.63;5.37;;;10.30;99.90;;;;;;5048400;28;20230;-61
2023/04/22 03:15:36;;;;;;;9.40;6.17;;;10.30;99.90;;;;;;5031231;28;20747;-61
2023/04/22 03:18:05;;;;;;;8.63;5.20;;;10.30;99.90;;;;;;5048211;28;20227;-61
2023/04/22 03:20:33;;;;;;;8.33;4.90;;;10.30;99.90;;;;;;5032667;28;20226;-61
2023/04/22 03:23:02;;;;;;;7.67;5.57;;;10.30;99.90;;;;;;5032788;28;20233;-61
2023/04/22 03:25:31;;;;;;;6.17;5.50;;;10.30;99.90;;;;;;5047919;28;20231;-61
2023/04/22 03:27:59;;;;;;;8.40;6.20;;;10.30;99.90;;;;;;5048069;28;20222;-61
2023/04/22 03:30:27;;;;;;;8.03;5.80;;;10.30;99.90;;;;;;5030924;28;20672;-61
2023/04/22 03:32:56;;;;;;;8.80;5.70;;;10.30;99.90;;;;;;5024859;28;20650;-61
2023/04/22 03:35:48;;;;;;;6.10;5.50;;;10.20;99.90;;;;;;5032007;28;20231;-61
2023/04/22 03:38:18;;;;;;;8.27;5.97;;;10.20;99.90;;;;;;5032766;28;20219;-61
2023/04/22 03:40:46;;;;;;;7.53;6.10;;;10.20;99.90;;;;;;5030506;28;20241;-61
2023/04/22 03:43:22;;;;;;;7.80;5.73;;;10.20;99.90;;;;;;5047919;28;20227;-61
2023/04/22 03:46:01;;;;;;;7.70;5.83;;;10.20;99.90;;;;;;5047738;28;20230;-61
2023/04/22 03:48:34;;;;;;;7.07;5.47;;;10.20;99.90;;;;;;5047420;28;20261;-61
2023/04/22 03:51:05;;;;;;;7.97;5.80;;;10.20;99.90;;;;;;5047663;28;20226;-61
2023/04/22 03:53:37;;;;;;;6.60;5.67;;;10.20;99.90;;;;;;5047774;28;20228;-61
2023/04/22 03:56:07;;;;;;;7.53;5.40;;;10.20;99.90;;;;;;5047667;28;20247;-61
2023/04/22 03:58:39;;;;;;;6.17;5.57;;;10.10;99.90;;;;;;5047651;28;20226;-62
2023/04/22 04:01:08;;;;;;;7.77;5.67;;;10.20;99.90;;;;;;5047126;28;20238;-61
2023/04/22 04:03:36;;;;;;;7.37;5.47;;;10.10;99.90;;;;;;5024400;28;20776;-61
2023/04/22 04:06:07;;;;;;;8.30;5.70;;;10.10;99.90;;;;;;5032032;28;20277;-61
2023/04/22 04:08:38;;;;;;;7.47;5.80;;;10.10;99.90;;;;;;5039168;28;20231;-61
2023/04/22 04:11:06;;;;;;;5.87;5.10;;;10.10;99.90;;;;;;5030726;28;20234;-61
2023/04/22 04:13:34;;;;;;;7.40;5.77;;;10.10;99.90;;;;;;5028964;28;20235;-61
2023/04/22 04:16:15;;;;;;;7.67;5.50;;;10.10;99.90;;;;;;5047497;28;20231;-61
2023/04/22 04:18:45;;;;;;;6.10;5.17;;;10.10;99.90;;;;;;5047175;28;20235;-61
2023/04/22 04:21:13;;;;;;;6.60;5.70;;;10.10;99.90;;;;;;5042611;28;20637;-61
2023/04/22 04:23:48;;;;;;;7.63;5.70;;;10.00;99.90;;;;;;5051195;28;20280;-61
2023/04/22 04:26:19;;;;;;;8.17;5.80;;;10.10;99.90;;;;;;5047861;28;20238;-61
2023/04/22 04:28:51;;;;;;;6.97;6.20;;;10.00;99.90;;;;;;5051236;28;20672;-61
2023/04/22 04:31:20;;;;;;;8.70;6.10;;;10.00;99.90;;;;;;5050759;28;20310;-61
2023/04/22 04:33:48;;;;;;;7.33;6.13;;;10.00;99.90;;;;;;5042673;28;20228;-60
2023/04/22 04:36:16;;;;;;;8.10;6.27;;;10.00;99.90;;;;;;5051027;28;20729;-61
2023/04/22 04:38:45;;;;;;;9.90;6.30;;;10.00;99.90;;;;;;5034273;28;20711;-62
2023/04/22 04:41:15;;;;;;;8.40;6.37;;;10.00;99.90;;;;;;5035869;28;20252;-61
2023/04/22 04:43:45;;;;;;;8.33;6.43;;;10.00;99.90;;;;;;5050083;28;20292;-61
2023/04/22 04:46:22;;;;;;;8.40;6.03;;;10.10;99.90;;;;;;5050693;28;20271;-61
2023/04/22 04:48:52;;;;;;;6.83;6.00;;;10.30;99.90;;;;;;5034232;28;20233;-61
2023/04/22 04:51:21;;;;;;;11.43;6.60;;;10.30;99.90;;;;;;5050876;28;20280;-61
2023/04/22 04:53:52;;;;;;;9.60;5.83;;;10.40;99.90;;;;;;5047487;28;20235;-61
2023/04/22 04:56:23;;;;;;;7.20;5.57;;;10.50;99.90;;;;;;5038439;28;20314;-61
2023/04/22 04:58:51;;;;;;;8.87;6.10;;;10.60;99.90;;;;;;5050684;28;20235;-61
2023/04/22 05:01:24;;;;;;;7.07;6.10;;;10.60;99.90;;;;;;5033559;28;20249;-61
2023/04/22 05:03:52;;;;;;;7.47;5.60;;;10.70;99.90;;;;;;5027639;28;20221;-61
2023/04/22 05:06:21;;;;;;;8.43;6.43;;;10.70;99.90;;;;;;5033055;28;20612;-61
2023/04/22 05:08:54;;;;;;;8.13;6.50;;;10.70;99.90;;;;;;5048093;28;20310;-62
2023/04/22 05:11:24;;;;;;;8.57;6.27;;;10.70;99.90;;;;;;5033430;28;20586;-61
2023/04/22 05:13:54;;;;;;;8.03;6.60;;;10.70;99.90;;;;;;5050155;28;20226;-61
2023/04/22 05:16:29;;;;;;;6.77;6.07;;;10.90;99.90;;;;;;5030725;28;20214;-61
2023/04/22 05:18:58;;;;;;;8.17;6.17;;;10.90;99.90;;;;;;5050070;28;20232;-61
2023/04/22 05:21:26;;;;;;;8.37;6.93;;;11.00;99.90;;;;;;5049822;28;20238;-61
2023/04/22 05:23:54;;;;;;;7.53;6.80;;;11.20;99.90;;;;;;5033470;28;20250;-61
2023/04/22 05:26:24;;;;;;;10.23;7.40;;;11.30;99.90;;;;;;5033638;28;20230;-61
2023/04/22 05:28:53;;;;;;;7.43;6.57;;;11.50;99.90;;;;;;5032885;28;20228;-61
2023/04/22 05:31:22;;;;;;;9.90;7.77;;;11.50;99.90;;;;;;5032918;28;20322;-61
2023/04/22 05:33:51;;;;;;;8.73;7.03;;;11.70;99.90;;;;;;5048685;28;20228;-62
2023/04/22 05:36:20;;;;;;;8.83;6.70;;;11.90;99.90;;;;;;5032933;28;20238;-62
2023/04/22 05:38:48;;;;;;;8.70;6.97;;;12.10;99.90;;;;;;5049712;28;20231;-61
2023/04/22 05:41:16;;;;;;;8.60;6.93;;;12.10;99.90;;;;;;5049903;28;20229;-61
2023/04/22 05:43:47;;;;;;;11.67;7.70;;;12.30;99.90;;;;;;5041742;28;20255;-62
2023/04/22 05:46:17;;;;;;;8.47;7.40;;;12.30;99.90;;;;;;5033313;28;20245;-62
2023/04/22 05:48:47;;;;;;;8.73;6.70;;;12.30;99.90;;;;;;5049525;28;20683;-62
2023/04/22 05:51:36;;;;;;;12.10;7.37;;;12.40;99.90;;;;;;5022680;28;20776;-61
2023/04/22 05:54:12;;;;;;;9.10;7.13;;;12.50;99.90;;;;;;5044430;28;20228;-62
2023/04/22 05:56:40;;;;;;;8.47;7.10;;;12.80;99.90;;;;;;5046152;28;20243;-62
2023/04/22 05:59:10;;;;;;;9.27;7.60;;;12.90;99.90;;;;;;5049000;28;20695;-63
2023/04/22 06:01:39;;;;;;;9.23;7.37;;;13.00;99.90;;;;;;5048369;28;20227;-62
2023/04/22 06:04:11;;;;;;;10.87;7.13;;;13.10;99.90;;;;;;5034084;28;20248;-63
2023/04/22 06:06:39;;;;;;;7.90;6.90;;;13.20;99.90;;;;;;5049333;28;20638;-62
2023/04/22 06:09:08;;;;;;;9.93;6.93;;;13.40;99.90;;;;;;5034712;28;20227;-62
2023/04/22 06:11:39;;;;;;;9.33;7.57;;;13.60;99.90;;;;;;5033221;28;20711;-63
2023/04/22 06:14:09;;;;;;;9.67;7.23;;;13.70;99.90;;;;;;5049754;28;20273;-62
2023/04/22 06:16:37;;;;;;;12.03;7.40;;;13.90;99.90;;;;;;5047216;28;20282;-62
2023/04/22 06:19:07;;;;;;;10.90;7.47;;;14.10;99.90;;;;;;5049549;28;20228;-62
2023/04/22 06:21:37;;;;;;;9.03;7.63;;;14.20;99.90;;;;;;5032730;28;20220;-62
2023/04/22 06:24:05;;;;;;;8.87;7.17;;;14.40;99.90;;;;;;5034457;28;20232;-62
2023/04/22 06:26:34;;;;;;;10.33;7.73;;;14.60;99.90;;;;;;5032938;28;20233;-63
2023/04/22 06:29:05;;;;;;;11.07;7.07;;;14.60;99.90;;;;;;5049748;28;20216;-63
2023/04/22 06:31:36;;;;;;;9.47;8.00;;;14.60;99.90;;;;;;5048555;28;20603;-62
2023/04/22 06:34:04;;;;;;;8.57;7.27;;;14.70;99.90;;;;;;5049430;28;20231;-62
2023/04/22 06:36:37;;;;;;;8.17;7.03;;;14.90;99.90;;;;;;5030167;28;20712;-62
2023/04/22 06:39:06;;;;;;;11.33;6.80;;;15.00;99.90;;;;;;5033014;28;20772;-62
2023/04/22 06:42:04;;;;;;;7.93;6.60;;;15.10;99.90;;;;;;5032668;28;20220;-62
2023/04/22 06:45:08;;;;;;;8.70;7.23;;;15.30;99.90;;;;;;5033312;28;20251;-62
2023/04/22 06:47:48;;;;;;;10.40;6.93;;;15.40;99.90;;;;;;5036045;28;20695;-62
2023/04/22 06:50:21;;;;;;;8.53;7.63;;;15.50;99.90;;;;;;5046870;28;20251;-63
2023/04/22 06:52:56;;;;;;;8.50;7.40;;;15.70;99.90;;;;;;5050325;28;20227;-63
2023/04/22 06:55:24;;;;;;;9.33;6.73;;;15.90;99.90;;;;;;5050036;28;20618;-63
2023/04/22 06:57:53;;;;;;;7.33;6.53;;;16.10;99.90;;;;;;5047705;28;20236;-63
2023/04/22 07:00:21;;;;;;;9.00;7.40;;;16.20;99.90;;;;;;5028472;28;20730;-63
2023/04/22 07:02:50;;;;;;;9.87;7.37;;;16.40;99.90;;;;;;5034213;28;20244;-63
2023/04/22 07:05:22;;;;;;;8.07;6.63;;;16.40;99.90;;;;;;5034637;28;20299;-63
2023/04/22 07:07:56;;;;;;;9.37;7.20;;;16.50;99.90;;;;;;5034593;28;20252;-63
2023/04/22 07:10:25;;;;;;;8.93;7.37;;;16.70;99.90;;;;;;5049749;28;20225;-63
2023/04/22 07:13:12;;;;;;;7.60;6.90;;;16.60;99.90;;;;;;5034646;28;20311;-63
2023/04/22 07:15:40;;;;;;;8.37;6.40;;;16.80;99.90;;;;;;5034510;28;20256;-63
2023/04/22 07:18:12;;;;;;;10.13;7.87;;;17.00;99.90;;;;;;5033478;28;20616;-63
2023/04/22 07:20:42;;;;;;;8.93;7.63;;;17.40;99.90;;;;;;5033732;28;20254;-63
2023/04/22 07:23:10;;;;;;;7.57;6.87;;;17.50;99.90;;;;;;5034061;28;20272;-63
2023/04/22 07:25:38;;;;;;;9.30;6.80;;;17.80;99.90;;;;;;5026215;28;20231;-64
2023/04/22 07:28:06;;;;;;;9.83;7.60;;;17.90;99.90;;;;;;5023750;28;20231;-64
2023/04/22 07:30:34;;;;;;;9.97;7.37;;;18.10;99.90;;;;;;5022443;28;20246;-64
2023/04/22 07:33:02;;;;;;;9.73;6.90;;;18.10;99.90;;;;;;5023029;28;20237;-63
2023/04/22 07:35:34;;;;;;;11.93;6.70;;;18.20;99.90;;;;;;5021960;28;20710;-63
2023/04/22 07:38:02;;;;;;;6.80;6.10;;;18.50;99.90;;;;;;5023710;28;20237;-63
2023/04/22 07:40:31;;;;;;;7.83;6.50;;;18.60;99.90;;;;;;5022554;28;20255;-63
2023/04/22 07:43:00;;;;;;;13.47;7.03;;;18.70;99.90;;;;;;5022660;28;20223;-63
2023/04/22 07:45:28;;;;;;;8.20;6.83;;;18.80;99.90;;;;;;5020655;28;20233;-64
2023/04/22 07:47:56;;;;;;;7.03;6.33;;;18.80;99.90;;;;;;5022733;28;20217;-64
2023/04/22 07:50:25;;;;;;;11.00;6.93;;;19.00;99.90;;;;;;5021606;28;20234;-64
2023/04/22 07:52:54;;;;;;;12.77;6.20;;;19.10;99.90;;;;;;5021909;28;20247;-64
2023/04/22 07:55:22;;;;;;;7.23;6.30;;;19.20;99.90;;;;;;5020625;28;20703;-64
2023/04/22 07:57:51;;;;;;;9.57;6.77;;;19.30;99.90;;;;;;5024940;28;20235;-64
2023/04/22 08:00:19;;;;;;;6.53;5.80;;;19.30;99.90;;;;;;5025936;28;20232;-65
2023/04/22 08:02:47;;;;;;;8.67;5.97;;;19.30;99.90;;;;;;5026354;28;20251;-63
2023/04/22 08:05:15;;;;;;;8.17;5.73;;;19.40;99.90;;;;;;5024110;28;20231;-64
2023/04/22 08:07:44;;;;;;;9.50;5.80;;;19.50;99.90;;;;;;5026182;28;20238;-64
2023/04/22 08:10:13;;;;;;;9.10;5.53;;;19.80;99.90;;;;;;5026123;28;20239;-64
2023/04/22 08:12:41;;;;;;;7.03;5.80;;;20.10;99.90;;;;;;5026049;28;20239;-63
2023/04/22 08:15:11;;;;;;;7.57;5.43;;;20.50;99.90;;;;;;5024548;28;20232;-64
2023/04/22 08:17:39;;;;;;;9.00;5.50;;;20.50;99.90;;;;;;5025671;28;20239;-64
2023/04/22 08:20:08;;;;;;;6.97;5.70;;;20.50;99.90;;;;;;5026358;28;20619;-63
2023/04/22 08:22:37;;;;;;;8.10;5.70;;;20.50;99.90;;;;;;5025009;28;20307;-64
2023/04/22 08:25:07;;;;;;;6.73;4.97;;;20.70;99.90;;;;;;5023509;28;20223;-64
2023/04/22 08:27:37;;;;;;;7.27;5.27;;;20.80;99.90;;;;;;5024778;28;20259;-64
2023/04/22 08:30:07;;;;;;;6.90;5.10;;;20.80;99.90;;;;;;5025486;28;20235;-64
2023/04/22 08:32:35;;;;;;;6.90;5.17;;;20.80;99.90;;;;;;5024902;28;20601;-65
2023/04/22 08:35:03;;;;;;;6.10;4.93;;;20.70;99.90;;;;;;5023385;28;20229;-64
2023/04/22 08:37:33;;;;;;;7.43;4.90;;;21.10;99.90;;;;;;5024610;28;20225;-64
2023/04/22 08:40:03;;;;;;;7.60;5.00;;;21.40;99.90;;;;;;5024929;28;20229;-64
2023/04/22 08:42:31;;;;;;;5.70;4.90;;;21.80;99.90;;;;;;5024510;28;20691;-64
2023/04/22 08:45:02;;;;;;;6.20;5.23;;;21.80;99.90;;;;;;5022996;28;20695;-64
2023/04/22 08:47:32;;;;;;;6.43;4.83;;;22.00;99.90;;;;;;5024598;28;20239;-64
2023/04/22 08:50:03;;;;;;;7.20;5.40;;;22.00;99.90;;;;;;5024826;28;20240;-64
2023/04/22 08:52:31;;;;;;;8.33;4.93;;;22.10;99.90;;;;;;5024212;28;20235;-64
2023/04/22 08:55:00;;;;;;;6.30;5.20;;;22.20;99.90;;;;;;5023065;28;20228;-64
2023/04/22 08:57:29;;;;;;;5.80;5.10;;;22.40;99.90;;;;;;5024791;28;20236;-65
2023/04/22 08:59:57;;;;;;;9.77;5.47;;;22.50;99.90;;;;;;5024571;28;20252;-65
2023/04/22 09:02:28;;;;;;;7.87;5.30;;;22.60;99.90;;;;;;5026936;28;20737;-65
2023/04/22 09:04:57;;;;;;;8.33;5.13;;;22.90;99.90;;;;;;5034207;28;20232;-63
2023/04/22 09:07:28;;;;;;;9.48;5.07;;;23.00;99.90;;;;;;5034758;28;20434;-63
2023/04/22 09:09:56;;;;;;;7.23;5.10;;;23.20;99.90;;;;;;5038092;28;20691;-59
2023/04/22 09:12:25;;;;;;;5.83;4.67;;;23.30;99.90;;;;;;5035389;28;20700;-65
2023/04/22 09:14:54;;;;;;;7.30;4.43;;;23.70;99.90;;;;;;5035021;28;20224;-65
2023/04/22 09:17:32;;;;;;;9.77;4.80;;;23.70;99.90;;;;;;5028975;28;20232;-65
2023/04/22 09:20:02;;;;;;;7.53;5.00;;;22.90;99.90;;;;;;5034902;28;20225;-65
2023/04/22 09:22:37;;;;;;;5.13;4.50;;;22.50;99.90;;;;;;5034517;28;20786;-65
2023/04/22 09:25:07;;;;;;;4.90;4.40;;;22.10;99.90;;;;;;5034971;28;20224;-65
2023/04/22 09:27:36;;;;;;;6.93;4.17;;;21.70;99.90;;;;;;5034387;28;20229;-65
2023/04/22 09:30:09;;;;;;;6.17;4.40;;;21.50;99.90;;;;;;5034131;28;20695;-61
2023/04/22 09:32:40;;;;;;;9.00;4.57;;;21.50;99.90;;;;;;5033052;28;20279;-61
2023/04/22 09:35:08;;;;;;;4.87;4.20;;;21.40;99.90;;;;;;5034536;28;20221;-61
2023/04/22 09:37:36;;;;;;;6.83;4.40;;;21.60;99.90;;;;;;5034271;28;20679;-61
2023/04/22 09:40:18;;;;;;;7.07;4.60;;;21.70;99.90;;;;;;5033954;28;20220;-61
2023/04/22 09:42:49;;;;;;;7.33;4.77;;;21.70;99.90;;;;;;5033982;28;20239;-61
2023/04/22 09:45:29;;;;;;;8.77;4.77;;;21.90;99.90;;;;;;5033396;28;20271;-61
2023/04/22 09:48:01;;;;;;;6.20;4.30;;;22.10;99.90;;;;;;5033967;28;20697;-62
2023/04/22 09:50:30;;;;;;;5.77;4.73;;;22.50;99.90;;;;;;5034075;28;20711;-61
2023/04/22 09:53:00;;;;;;;8.00;4.80;;;22.80;99.90;;;;;;5033617;28;20228;-61
2023/04/22 09:55:29;;;;;;;6.07;4.43;;;23.30;99.90;;;;;;5034273;28;20688;-61
2023/04/22 09:57:58;;;;;;;4.57;4.00;;;23.60;99.90;;;;;;5034518;28;20229;-61
2023/04/22 10:00:29;;;;;;;4.67;4.00;;;23.80;99.90;;;;;;5031141;28;20228;-62
2023/04/22 10:02:59;;;;;;;8.80;4.53;;;24.10;99.90;;;;;;5034042;28;20249;-62
2023/04/22 10:05:28;;;;;;;5.13;3.73;;;24.20;99.60;;;;;;5033736;28;20224;-62
2023/04/22 10:07:56;;;;;;;4.53;3.90;;;24.30;98.60;;;;;;5034091;28;20236;-62
2023/04/22 10:10:24;;;;;;;4.13;3.20;;;24.30;97.30;;;;;;5033684;28;20260;-62
2023/04/22 10:12:54;;;;;;;6.73;3.60;;;24.40;97.90;;;;;;5033952;28;20619;-62
2023/04/22 10:15:22;;;;;;;6.00;3.70;;;24.40;97.50;;;;;;5033976;28;20796;-62
2023/04/22 10:17:55;;;;;;;4.20;3.13;;;24.50;96.00;;;;;;5033143;28;20239;-62
2023/04/22 10:20:26;;;;;;;3.23;2.90;;;24.50;96.00;;;;;;5048159;28;20227;-62
2023/04/22 10:22:55;;;;;;;3.50;2.90;;;24.80;95.80;;;;;;5032860;28;20685;-62
2023/04/22 10:25:25;;;;;;;3.27;2.93;;;25.00;94.80;;;;;;5033194;28;20736;-62
2023/04/22 10:27:54;;;;;;;4.63;2.97;;;25.30;94.00;;;;;;5024562;28;20230;-62
2023/04/22 10:30:29;;;;;;;3.67;2.60;;;25.60;94.20;;;;;;5032559;28;20571;-62
2023/04/22 10:33:39;;;;;;;3.33;2.83;;;26.00;94.00;;;;;;5033498;28;20231;-61
2023/04/22 10:36:11;;;;;;;4.00;3.00;;;25.70;92.40;;;;;;5023366;28;20659;-61
2023/04/22 10:38:41;;;;;;;3.40;3.10;;;25.80;92.60;;;;;;5033275;28;20754;-61
2023/04/22 10:41:14;;;;;;;5.67;3.30;;;26.20;92.70;;;;;;5033608;28;20707;-60
2023/04/22 10:43:43;;;;;;;5.00;3.10;;;26.10;92.30;;;;;;5033252;28;20638;-60
2023/04/22 10:46:58;;;;;;;5.50;3.10;;;26.00;92.40;;;;;;5032663;28;20773;-61
2023/04/22 10:49:30;;;;;;;4.43;3.67;;;26.10;92.30;;;;;;4985664;28;20241;-61
2023/04/22 10:52:02;;;;;;;6.17;3.93;;;25.90;91.20;;;;;;5029217;28;20695;-61
2023/04/22 10:55:00;;;;;;;4.77;3.40;;;25.90;91.40;;;;;;5033069;28;20223;-61
2023/04/22 10:57:38;;;;;;;6.10;4.10;;;25.70;91.10;;;;;;5032902;28;20322;-61
2023/04/22 11:00:32;;;;;;;4.10;3.47;;;25.60;91.70;;;;;;5029023;28;20265;-61
2023/04/22 11:03:26;;;;;;;7.43;3.73;;;25.70;91.30;;;;;;5021615;28;20358;-63
2023/04/22 11:06:13;;;;;;;5.80;3.83;;;26.10;91.80;;;;;;5022247;28;20327;-61
2023/04/22 11:08:46;;;;;;;4.20;3.80;;;26.00;90.50;;;;;;5022251;28;20244;-62
2023/04/22 11:11:17;;;;;;;3.70;3.00;;;26.10;90.10;;;;;;5021063;28;20243;-61
2023/04/22 11:13:49;;;;;;;3.33;2.83;;;26.20;90.10;;;;;;5022414;28;20226;-63
2023/04/22 11:16:20;;;;;;;3.77;2.90;;;26.40;89.00;;;;;;5021735;28;20729;-63
2023/04/22 11:18:49;;;;;;;4.40;2.97;;;26.30;88.60;;;;;;5021494;28;21521;-61
2023/04/22 11:21:19;;;;;;;3.43;2.80;;;26.30;89.00;;;;;;5019965;28;20255;-62
2023/04/22 11:23:52;;;;;;;4.43;3.00;;;26.10;87.20;;;;;;5021365;28;20238;-63
2023/04/22 11:26:33;;;;;;;4.77;3.03;;;26.30;89.00;;;;;;5022294;28;20595;-62
2023/04/22 11:29:01;;;;;;;3.63;3.07;;;26.30;89.10;;;;;;5022009;28;20242;-63
2023/04/22 11:31:29;;;;;;;3.73;2.57;;;26.10;86.90;;;;;;5019271;28;20745;-61
2023/04/22 11:33:59;;;;;;;3.83;2.87;;;26.10;89.40;;;;;;5022232;28;20235;-61
2023/04/22 11:36:27;;;;;;;4.97;2.90;;;26.30;89.80;;;;;;5021999;28;20240;-61
2023/04/22 11:38:57;;;;;;;4.90;2.73;;;26.30;89.10;;;;;;5021876;28;20232;-61
2023/04/22 11:41:25;;;;;;;5.20;2.77;;;26.20;88.60;;;;;;5021025;28;20573;-62
2023/04/22 11:43:54;;;;;;;4.37;2.70;;;26.30;87.70;;;;;;5021591;28;20591;-61
2023/04/22 11:46:30;;;;;;;3.17;2.67;;;26.00;87.70;;;;;;5021535;28;20228;-63
2023/04/22 11:49:12;;;;;;;2.70;2.30;;;25.70;87.50;;;;;;5022104;28;20598;-63
2023/04/22 11:51:52;;;;;;;5.77;2.97;;;25.40;88.90;;;;;;5019514;28;20243;-62
2023/04/22 11:54:31;;;;;;;3.47;3.10;;;25.40;90.00;;;;;;5021373;28;20245;-61
2023/04/22 11:57:02;;;;;;;3.80;2.70;;;25.70;90.00;;;;;;5021395;28;20235;-60
2023/04/22 11:59:30;;;;;;;4.77;2.73;;;25.80;90.10;;;;;;5020898;28;20240;-61
2023/04/22 12:01:58;;;;;;;7.10;2.37;;;25.50;89.50;;;;;;5019184;28;20263;-60
2023/04/22 12:04:26;;;;;;;3.83;2.77;;;25.30;90.30;;;;;;5021501;28;20742;-62
2023/04/22 12:06:54;;;;;;;5.43;2.73;;;25.30;90.80;;;;;;5021698;28;20248;-62
2023/04/22 12:09:25;;;;;;;7.00;2.60;;;25.40;89.80;;;;;;5021692;28;20695;-61
2023/04/22 12:11:54;;;;;;;4.20;2.50;;;25.50;91.10;;;;;;5019685;28;20726;-61
2023/04/22 12:14:31;;;;;;;3.13;2.40;;;25.50;90.30;;;;;;5021861;28;20250;-61
2023/04/22 12:17:03;;;;;;;5.73;2.50;;;25.70;91.10;;;;;;5021616;28;20586;-61
2023/04/22 12:19:31;;;;;;;2.60;2.40;;;25.90;90.90;;;;;;5021484;28;20247;-61
2023/04/22 12:21:59;;;;;;;4.87;2.70;;;25.90;90.30;;;;;;5020114;28;20236;-61
2023/04/22 12:24:28;;;;;;;2.83;2.40;;;25.60;90.10;;;;;;5021652;28;20594;-61
2023/04/22 12:26:58;;;;;;;3.70;2.50;;;25.40;91.20;;;;;;5021258;28;20334;-61
2023/04/22 12:29:27;;;;;;;4.83;2.40;;;25.10;90.60;;;;;;5021467;28;20704;-61
2023/04/22 12:31:56;;;;;;;3.97;2.57;;;25.10;90.70;;;;;;5019140;28;20243;-61
2023/04/22 12:34:24;;;;;;;5.77;2.60;;;25.00;91.00;;;;;;5021692;28;20236;-61
2023/04/22 12:36:52;;;;;;;2.93;2.50;;;25.00;91.80;;;;;;5021158;28;20246;-61
2023/04/22 12:39:20;;;;;;;2.87;2.30;;;25.00;90.60;;;;;;5021295;28;20227;-61
2023/04/22 12:41:49;;;;;;;3.53;2.30;;;25.00;91.90;;;;;;5019767;28;20723;-60
2023/04/22 12:44:19;;;;;;;3.10;2.40;;;25.20;92.20;;;;;;5024748;28;21608;-61
2023/04/22 12:46:47;;;;;;;4.23;2.53;;;25.10;91.20;;;;;;5024967;28;20231;-60
2023/04/22 12:49:15;;;;;;;4.50;2.20;;;24.70;91.20;;;;;;5025034;28;20303;-60
2023/04/22 12:51:43;;;;;;;3.03;2.10;;;24.50;91.40;;;;;;5022696;28;20717;-62
2023/04/22 12:54:11;;;;;;;4.33;2.50;;;24.50;91.70;;;;;;5025273;28;20235;-60
2023/04/22 12:56:39;;;;;;;2.53;2.30;;;24.70;91.90;;;;;;5023255;28;20230;-61
2023/04/22 12:59:07;;;;;;;3.80;2.50;;;24.80;91.20;;;;;;5024723;28;20229;-62
2023/04/22 13:01:38;;;;;;;4.60;2.53;;;24.60;91.30;;;;;;5021931;28;20252;-60
2023/04/22 13:04:06;;;;;;;4.27;2.13;;;24.50;91.70;;;;;;5024796;28;20235;-61
2023/04/22 13:06:36;;;;;;;3.63;2.20;;;24.60;91.70;;;;;;5024295;28;20629;-62